Time;durP1;ratioP1;P1;durP2;ratioP2;P2;SDS_P1;SDS_P2;PMS_P1;PMS_P2;Temp;Humidity;BMP_temperature;BMP_pressure;BME280_temperature;BME280_humidity;BME280_pressure;Samples;Min_cycle;Max_cycle;Signal;HPM_P1;HPM_P2
2021/09/27 00:02:18;;;;;;;8.77;6.77;;;15.80;99.90;;;;;;4994129;28;20389;-73
2021/09/27 00:04:44;;;;;;;8.57;6.10;;;15.80;99.90;;;;;;4994208;28;20422;-74
2021/09/27 00:07:10;;;;;;;10.17;8.10;;;15.80;99.90;;;;;;4993667;28;20424;-74
2021/09/27 00:09:36;;;;;;;8.40;7.40;;;15.80;99.90;;;;;;4985411;28;20243;-73
2021/09/27 00:12:06;;;;;;;9.67;5.50;;;15.70;99.90;;;;;;4974785;28;20408;-74
2021/09/27 00:14:32;;;;;;;8.10;6.87;;;15.80;99.90;;;;;;4974997;28;20176;-74
2021/09/27 00:16:58;;;;;;;7.93;7.10;;;15.80;99.90;;;;;;4974213;28;20397;-74
2021/09/27 00:19:24;;;;;;;12.17;7.13;;;15.80;99.90;;;;;;4974567;28;20415;-74
2021/09/27 00:21:51;;;;;;;7.77;7.00;;;15.70;99.90;;;;;;4974618;28;20721;-73
2021/09/27 00:24:18;;;;;;;10.00;7.27;;;15.70;99.90;;;;;;4957631;28;20916;-74
2021/09/27 00:26:44;;;;;;;9.27;7.00;;;15.70;99.90;;;;;;4956471;28;20837;-74
2021/09/27 00:29:10;;;;;;;9.10;6.13;;;15.70;99.90;;;;;;4974342;28;20422;-73
2021/09/27 00:31:36;;;;;;;9.40;7.43;;;15.70;99.90;;;;;;4974364;28;20490;-73
2021/09/27 00:34:02;;;;;;;10.27;7.20;;;15.70;99.90;;;;;;4974510;28;20259;-73
2021/09/27 00:36:27;;;;;;;8.20;6.67;;;15.70;99.90;;;;;;4974350;28;20175;-73
2021/09/27 00:38:53;;;;;;;9.97;8.47;;;15.70;99.90;;;;;;4956886;28;20992;-73
2021/09/27 00:41:20;;;;;;;7.70;6.90;;;15.70;99.90;;;;;;4974236;28;20183;-73
2021/09/27 00:43:47;;;;;;;9.67;7.93;;;15.70;99.90;;;;;;4974537;28;20258;-73
2021/09/27 00:46:18;;;;;;;9.80;7.83;;;15.60;99.90;;;;;;4974458;28;20403;-73
2021/09/27 00:48:45;;;;;;;8.20;6.50;;;15.60;99.90;;;;;;4977762;28;20815;-73
2021/09/27 00:51:16;;;;;;;14.90;7.93;;;15.60;99.90;;;;;;4978061;28;20456;-73
2021/09/27 00:53:48;;;;;;;13.13;8.47;;;15.60;99.90;;;;;;4985245;28;20447;-74
2021/09/27 00:56:17;;;;;;;10.23;7.47;;;15.50;99.90;;;;;;4997642;28;20380;-74
2021/09/27 00:58:44;;;;;;;9.03;7.40;;;15.60;99.90;;;;;;4997190;28;20429;-73
2021/09/27 01:01:09;;;;;;;9.90;7.13;;;15.60;99.90;;;;;;4987165;28;20834;-73
2021/09/27 01:03:36;;;;;;;9.83;7.80;;;15.50;99.90;;;;;;4978153;28;20374;-72
2021/09/27 01:06:38;;;;;;;11.07;7.43;;;15.50;99.90;;;;;;4978180;28;20172;-72
2021/09/27 01:09:09;;;;;;;10.80;6.70;;;15.50;99.90;;;;;;4977851;28;20475;-73
2021/09/27 01:12:16;;;;;;;10.87;7.63;;;15.40;99.90;;;;;;4977927;28;20468;-73
2021/09/27 01:15:01;;;;;;;9.53;7.37;;;15.40;99.90;;;;;;4972188;28;20513;-72
2021/09/27 01:17:57;;;;;;;7.77;6.30;;;15.30;99.90;;;;;;4996768;28;20425;-73
2021/09/27 01:20:40;;;;;;;9.27;7.50;;;15.30;99.90;;;;;;4993406;28;20456;-74
2021/09/27 01:23:24;;;;;;;7.53;6.40;;;15.30;99.90;;;;;;4977611;28;20729;-74
2021/09/27 01:26:11;;;;;;;10.07;7.50;;;15.30;99.90;;;;;;4977522;28;20883;-73
2021/09/27 01:29:01;;;;;;;10.43;8.77;;;15.30;99.90;;;;;;4977233;28;20410;-73
2021/09/27 01:31:52;;;;;;;11.83;7.00;;;15.30;99.90;;;;;;4977929;28;20386;-74
2021/09/27 01:34:22;;;;;;;10.43;7.93;;;15.20;99.90;;;;;;4958150;29;20413;-73
2021/09/27 01:37:03;;;;;;;8.00;7.00;;;15.20;99.90;;;;;;4957956;29;20410;-75
2021/09/27 01:39:38;;;;;;;9.73;7.47;;;15.10;99.90;;;;;;4958025;28;20417;-72
2021/09/27 01:42:12;;;;;;;8.10;7.23;;;15.10;99.90;;;;;;4958055;29;20473;-73
2021/09/27 01:44:54;;;;;;;7.83;6.80;;;15.10;99.90;;;;;;4957976;29;20427;-73
2021/09/27 01:47:26;;;;;;;7.10;6.40;;;15.00;99.90;;;;;;4972011;28;20526;-71
2021/09/27 01:50:14;;;;;;;9.10;7.50;;;15.00;99.90;;;;;;4995912;28;20551;-73
2021/09/27 01:52:52;;;;;;;10.97;7.77;;;14.90;99.90;;;;;;4996717;28;20389;-72
2021/09/27 01:55:47;;;;;;;9.03;7.80;;;14.90;99.90;;;;;;4979087;28;20415;-73
2021/09/27 01:58:24;;;;;;;9.73;7.90;;;14.80;99.90;;;;;;4995585;28;20393;-74
2021/09/27 02:00:55;;;;;;;8.83;7.77;;;14.80;99.90;;;;;;4996622;28;20771;-73
2021/09/27 02:03:47;;;;;;;9.87;8.87;;;14.80;99.90;;;;;;4978651;28;20434;-75
2021/09/27 02:06:31;;;;;;;11.23;7.33;;;14.80;99.90;;;;;;4976829;28;20389;-75
2021/09/27 02:09:08;;;;;;;8.33;6.90;;;14.70;99.90;;;;;;4976682;28;20400;-74
2021/09/27 02:11:37;;;;;;;8.60;6.73;;;14.70;99.90;;;;;;4977109;28;20380;-73
2021/09/27 02:14:36;;;;;;;9.40;7.27;;;14.80;99.90;;;;;;4977042;28;20403;-74
2021/09/27 02:17:04;;;;;;;9.83;6.93;;;14.80;99.90;;;;;;4985040;28;20397;-74
2021/09/27 02:19:33;;;;;;;10.03;7.90;;;14.80;99.90;;;;;;4995912;28;20428;-71
2021/09/27 02:22:38;;;;;;;9.10;7.17;;;14.80;99.90;;;;;;4996081;28;20438;-72
2021/09/27 02:25:31;;;;;;;13.57;7.53;;;14.80;99.90;;;;;;4995977;28;20421;-72
2021/09/27 02:27:58;;;;;;;8.03;6.93;;;14.80;99.90;;;;;;4995442;28;20454;-73
2021/09/27 02:30:55;;;;;;;10.63;8.27;;;14.90;99.90;;;;;;4991741;28;20451;-73
2021/09/27 02:33:41;;;;;;;12.10;7.90;;;14.90;99.90;;;;;;4969402;28;20422;-71
2021/09/27 02:36:27;;;;;;;9.47;7.07;;;14.90;99.90;;;;;;4976597;28;20370;-72
2021/09/27 02:39:11;;;;;;;9.40;7.57;;;15.00;99.90;;;;;;4975820;28;20424;-73
2021/09/27 02:41:51;;;;;;;8.33;6.10;;;15.00;99.90;;;;;;4976424;28;20390;-73
2021/09/27 02:44:16;;;;;;;9.70;7.13;;;15.00;99.90;;;;;;4976367;28;20479;-73
2021/09/27 02:46:46;;;;;;;10.77;8.00;;;15.00;99.90;;;;;;4986868;28;20530;-73
2021/09/27 02:49:14;;;;;;;9.90;7.10;;;15.10;99.90;;;;;;4995575;28;20218;-73
2021/09/27 02:51:42;;;;;;;8.10;6.50;;;15.10;99.90;;;;;;4995458;28;20408;-74
2021/09/27 02:54:10;;;;;;;10.20;6.73;;;15.10;99.90;;;;;;4995164;28;20419;-72
2021/09/27 02:56:58;;;;;;;9.20;6.90;;;15.10;99.90;;;;;;4995130;28;20377;-71
2021/09/27 02:59:26;;;;;;;8.30;7.13;;;15.10;99.90;;;;;;4978366;28;20438;-73
2021/09/27 03:02:01;;;;;;;8.53;6.63;;;15.10;99.90;;;;;;4977843;28;20412;-72
2021/09/27 03:04:43;;;;;;;7.80;5.37;;;15.10;99.90;;;;;;4995223;28;20723;-73
2021/09/27 03:07:39;;;;;;;10.63;7.30;;;15.10;99.90;;;;;;4980319;28;20795;-72
2021/09/27 03:10:26;;;;;;;7.73;6.93;;;15.10;99.90;;;;;;4974878;28;20437;-70
2021/09/27 03:13:28;;;;;;;9.33;6.10;;;15.00;99.90;;;;;;4975873;28;20422;-73
2021/09/27 03:16:18;;;;;;;7.50;6.10;;;15.10;99.90;;;;;;4975785;28;20430;-73
2021/09/27 03:18:58;;;;;;;8.73;6.30;;;15.10;99.90;;;;;;4975166;28;20485;-72
2021/09/27 03:21:30;;;;;;;7.40;6.57;;;15.00;99.90;;;;;;4975504;28;20785;-72
2021/09/27 03:24:11;;;;;;;9.07;6.07;;;15.10;99.90;;;;;;4975442;28;20392;-72
2021/09/27 03:26:57;;;;;;;9.27;6.47;;;15.10;99.90;;;;;;4957606;28;20463;-73
2021/09/27 03:29:50;;;;;;;10.60;7.10;;;15.00;99.90;;;;;;4975380;28;20413;-72
2021/09/27 03:32:38;;;;;;;12.37;8.13;;;15.10;99.90;;;;;;4988085;28;20385;-71
2021/09/27 03:35:31;;;;;;;8.20;7.10;;;15.10;99.90;;;;;;4994782;28;20733;-73
2021/09/27 03:38:06;;;;;;;9.23;6.70;;;15.10;99.90;;;;;;4994438;28;20767;-73
2021/09/27 03:40:58;;;;;;;9.00;5.70;;;15.20;99.90;;;;;;4994407;28;20855;-73
2021/09/27 03:43:44;;;;;;;9.80;7.73;;;15.20;99.90;;;;;;4994700;28;20756;-73
2021/09/27 03:46:36;;;;;;;10.40;7.43;;;15.20;99.90;;;;;;4994237;28;20487;-72
2021/09/27 03:49:27;;;;;;;9.13;7.53;;;15.20;99.90;;;;;;4995048;28;20808;-73
2021/09/27 03:52:00;;;;;;;9.17;7.43;;;15.30;99.90;;;;;;4994634;28;20426;-73
2021/09/27 03:54:28;;;;;;;10.97;6.90;;;15.30;99.90;;;;;;4995017;28;20374;-74
2021/09/27 03:57:18;;;;;;;8.23;5.80;;;15.30;99.90;;;;;;4994054;28;20735;-72
2021/09/27 04:00:10;;;;;;;7.63;6.40;;;15.30;99.90;;;;;;4994046;28;20628;-71
2021/09/27 04:02:43;;;;;;;7.97;6.10;;;15.30;99.90;;;;;;4931512;29;20909;-71
2021/09/27 04:05:27;;;;;;;9.87;7.47;;;15.40;99.90;;;;;;4955613;29;20383;-72
2021/09/27 04:08:07;;;;;;;9.67;6.90;;;15.40;99.90;;;;;;4955065;29;20452;-73
2021/09/27 04:10:38;;;;;;;8.53;6.53;;;15.30;99.90;;;;;;4955431;28;20820;-71
2021/09/27 04:13:13;;;;;;;7.10;6.50;;;15.40;99.90;;;;;;4955546;29;20913;-72
2021/09/27 04:15:51;;;;;;;8.67;6.93;;;15.40;99.90;;;;;;4961594;28;20394;-74
2021/09/27 04:18:47;;;;;;;9.10;7.17;;;15.40;99.90;;;;;;4974171;28;20392;-73
2021/09/27 04:21:19;;;;;;;9.47;7.27;;;15.30;99.90;;;;;;4974634;28;20744;-73
2021/09/27 04:23:58;;;;;;;8.07;7.03;;;15.40;99.90;;;;;;4957376;28;20460;-72
2021/09/27 04:26:37;;;;;;;9.93;8.27;;;15.40;99.90;;;;;;4974596;28;20425;-73
2021/09/27 04:29:26;;;;;;;9.20;7.57;;;15.40;99.90;;;;;;4968653;28;20435;-72
2021/09/27 04:32:22;;;;;;;6.97;6.27;;;15.40;99.90;;;;;;4974207;28;20473;-72
2021/09/27 04:34:56;;;;;;;8.20;5.63;;;15.40;99.90;;;;;;4974383;28;20396;-74
2021/09/27 04:37:24;;;;;;;8.90;6.60;;;15.40;99.90;;;;;;4974164;28;20417;-73
2021/09/27 04:39:50;;;;;;;8.60;7.53;;;15.40;99.90;;;;;;4974334;28;20423;-74
2021/09/27 04:42:39;;;;;;;9.57;7.50;;;15.40;99.90;;;;;;4991005;28;20456;-75
2021/09/27 04:45:19;;;;;;;10.03;7.90;;;15.40;99.90;;;;;;4993712;28;20421;-73
2021/09/27 04:47:53;;;;;;;10.80;7.93;;;15.40;99.90;;;;;;4975792;28;20453;-72
2021/09/27 04:51:06;;;;;;;8.93;8.03;;;15.30;99.90;;;;;;4993530;28;20450;-75
2021/09/27 04:53:59;;;;;;;9.43;8.10;;;15.30;99.90;;;;;;4915136;29;20412;-74
2021/09/27 04:56:48;;;;;;;7.30;5.97;;;15.20;99.90;;;;;;4979553;28;20426;-73
2021/09/27 04:59:17;;;;;;;7.43;6.33;;;15.20;99.90;;;;;;4973822;28;20405;-73
2021/09/27 05:01:51;;;;;;;8.83;5.33;;;15.10;99.90;;;;;;4970424;28;20539;-73
2021/09/27 05:04:52;;;;;;;7.80;6.57;;;15.10;99.90;;;;;;4993109;28;20948;-74
2021/09/27 05:07:36;;;;;;;9.00;6.60;;;15.00;99.90;;;;;;4993076;28;20427;-73
2021/09/27 05:10:04;;;;;;;7.47;6.57;;;14.90;99.90;;;;;;4993441;28;20981;-73
2021/09/27 05:12:43;;;;;;;8.10;6.33;;;14.90;99.90;;;;;;4993427;28;20388;-73
2021/09/27 05:15:50;;;;;;;8.07;6.00;;;14.80;99.90;;;;;;4975472;28;20445;-73
2021/09/27 05:18:41;;;;;;;8.87;6.07;;;14.80;99.90;;;;;;4992727;28;20425;-74
2021/09/27 05:21:07;;;;;;;7.47;6.63;;;14.70;99.90;;;;;;4992949;28;20572;-72
2021/09/27 05:23:53;;;;;;;8.90;6.80;;;14.70;99.90;;;;;;4991533;28;20513;-73
2021/09/27 05:26:43;;;;;;;9.80;6.30;;;14.70;99.90;;;;;;4991659;28;20191;-74
2021/09/27 05:29:14;;;;;;;9.37;7.30;;;14.70;99.90;;;;;;4954363;28;20515;-73
2021/09/27 05:31:59;;;;;;;7.93;6.10;;;14.70;99.90;;;;;;4992208;28;20409;-73
2021/09/27 05:34:35;;;;;;;8.13;6.57;;;14.60;99.90;;;;;;4996397;28;20414;-73
2021/09/27 05:37:29;;;;;;;6.93;6.23;;;14.60;99.90;;;;;;4994382;28;20759;-74
2021/09/27 05:40:08;;;;;;;8.40;6.63;;;14.60;99.90;;;;;;4977845;28;20444;-74
2021/09/27 05:43:06;;;;;;;8.37;6.00;;;14.60;99.90;;;;;;4977778;28;20410;-73
2021/09/27 05:46:01;;;;;;;8.53;6.50;;;14.70;99.90;;;;;;4977383;28;20867;-73
2021/09/27 05:48:37;;;;;;;12.83;7.77;;;14.70;99.90;;;;;;4976800;28;20458;-73
2021/09/27 05:51:10;;;;;;;8.50;6.90;;;14.70;99.90;;;;;;4975079;28;20412;-73
2021/09/27 05:53:43;;;;;;;10.20;6.77;;;14.70;99.90;;;;;;4977062;28;20389;-73
2021/09/27 05:56:32;;;;;;;9.40;7.27;;;14.70;99.90;;;;;;4977282;28;20481;-72
2021/09/27 05:59:03;;;;;;;9.87;7.20;;;14.80;99.90;;;;;;4957550;28;20475;-71
2021/09/27 06:02:14;;;;;;;20.93;8.50;;;14.90;99.90;;;;;;4957583;29;20433;-73
2021/09/27 06:04:43;;;;;;;11.43;7.90;;;15.10;99.90;;;;;;4940295;29;20477;-72
2021/09/27 06:07:24;;;;;;;10.30;7.63;;;15.30;99.90;;;;;;4957147;29;20431;-72
2021/09/27 06:10:38;;;;;;;11.17;7.17;;;15.60;99.90;;;;;;4957397;28;20578;-72
2021/09/27 06:13:20;;;;;;;20.90;10.30;;;15.90;99.90;;;;;;4930079;28;20794;-73
2021/09/27 06:15:59;;;;;;;9.97;8.03;;;16.50;99.90;;;;;;4976888;28;20390;-72
2021/09/27 06:18:49;;;;;;;10.90;7.70;;;16.70;99.90;;;;;;4958937;28;20391;-76
2021/09/27 06:21:42;;;;;;;7.80;6.43;;;16.80;99.90;;;;;;4976472;28;20881;-69
2021/09/27 06:24:38;;;;;;;9.10;6.37;;;16.90;99.90;;;;;;4976100;28;20394;-72
2021/09/27 06:27:19;;;;;;;9.00;6.53;;;16.80;99.90;;;;;;4976296;28;20450;-71
2021/09/27 06:30:13;;;;;;;8.60;6.47;;;16.90;99.90;;;;;;4976571;28;20823;-72
2021/09/27 06:32:57;;;;;;;7.03;5.90;;;17.40;99.90;;;;;;4973870;28;20447;-71
2021/09/27 06:35:27;;;;;;;5.47;4.87;;;17.70;99.90;;;;;;4979504;28;20930;-73
2021/09/27 06:37:53;;;;;;;7.50;5.53;;;17.90;99.90;;;;;;4994997;28;20424;-72
2021/09/27 06:40:21;;;;;;;5.13;4.67;;;17.90;99.90;;;;;;4977153;28;20477;-71
2021/09/27 06:42:47;;;;;;;5.13;4.63;;;17.70;99.90;;;;;;4976000;28;20396;-72
2021/09/27 06:45:13;;;;;;;7.10;5.63;;;17.60;99.90;;;;;;4974913;28;20830;-74
2021/09/27 06:47:39;;;;;;;6.60;5.13;;;17.60;99.90;;;;;;4958149;28;20570;-75
2021/09/27 06:50:08;;;;;;;6.53;5.63;;;17.50;99.90;;;;;;4975779;28;20431;-72
2021/09/27 06:52:33;;;;;;;9.40;6.07;;;17.50;99.90;;;;;;4975944;28;20191;-72
2021/09/27 06:54:59;;;;;;;5.87;5.20;;;17.70;99.90;;;;;;4975798;28;20416;-70
2021/09/27 06:57:25;;;;;;;6.63;5.47;;;17.90;99.90;;;;;;4975438;28;20176;-71
2021/09/27 06:59:50;;;;;;;9.43;4.73;;;18.10;99.90;;;;;;4975704;28;20230;-71
2021/09/27 07:02:18;;;;;;;6.00;4.27;;;18.20;99.90;;;;;;4991108;28;20472;-71
2021/09/27 07:04:43;;;;;;;6.07;4.80;;;18.30;99.90;;;;;;4995268;28;20182;-71
2021/09/27 07:07:09;;;;;;;5.50;4.87;;;18.50;99.90;;;;;;4976376;28;20931;-71
2021/09/27 07:09:36;;;;;;;7.10;4.20;;;18.80;99.90;;;;;;4975397;28;20201;-72
2021/09/27 07:12:02;;;;;;;5.93;4.60;;;19.30;99.90;;;;;;4975472;28;20303;-72
2021/09/27 07:14:28;;;;;;;5.50;4.90;;;19.70;99.90;;;;;;4975525;28;20436;-72
2021/09/27 07:17:02;;;;;;;5.30;4.63;;;20.30;99.90;;;;;;4975629;28;20912;-73
2021/09/27 07:19:27;;;;;;;6.73;5.00;;;20.70;99.90;;;;;;4975304;28;20212;-71
2021/09/27 07:21:53;;;;;;;6.00;5.03;;;20.60;99.90;;;;;;4975427;28;20378;-71
2021/09/27 07:24:18;;;;;;;5.63;5.10;;;20.70;99.90;;;;;;4975211;28;20192;-72
2021/09/27 07:26:44;;;;;;;5.43;4.50;;;20.60;99.90;;;;;;4975885;28;20200;-70
2021/09/27 07:29:10;;;;;;;6.20;4.63;;;20.50;99.90;;;;;;4975254;28;20622;-70
2021/09/27 07:31:36;;;;;;;5.67;5.07;;;20.60;99.90;;;;;;4975247;28;20168;-70
2021/09/27 07:34:05;;;;;;;5.90;5.00;;;20.90;99.90;;;;;;4975484;28;20187;-70
2021/09/27 07:36:30;;;;;;;5.87;5.27;;;21.50;99.90;;;;;;4994048;28;20744;-71
2021/09/27 07:38:56;;;;;;;4.67;4.10;;;22.30;99.90;;;;;;4994124;28;20425;-71
2021/09/27 07:41:22;;;;;;;4.80;4.30;;;23.10;99.90;;;;;;4994667;28;20650;-72
2021/09/27 07:43:48;;;;;;;4.23;3.83;;;24.10;99.90;;;;;;4994641;28;20188;-71
2021/09/27 07:46:15;;;;;;;7.40;5.10;;;25.10;99.90;;;;;;4994206;28;20410;-72
2021/09/27 07:48:41;;;;;;;4.50;4.10;;;26.00;99.90;;;;;;4982897;28;20196;-71
2021/09/27 07:51:08;;;;;;;3.90;3.60;;;26.70;99.10;;;;;;4974637;28;20475;-71
2021/09/27 07:53:33;;;;;;;4.70;4.23;;;27.40;97.70;;;;;;4974626;28;20826;-72
2021/09/27 07:55:59;;;;;;;4.80;4.40;;;28.10;96.30;;;;;;4974505;28;20439;-72
2021/09/27 07:58:25;;;;;;;5.00;4.60;;;28.70;94.60;;;;;;4990807;28;20186;-71
2021/09/27 08:00:51;;;;;;;4.87;4.47;;;29.40;92.70;;;;;;4976304;28;20178;-70
2021/09/27 08:03:17;;;;;;;4.27;3.87;;;30.00;92.50;;;;;;4994295;28;20182;-70
2021/09/27 08:05:43;;;;;;;4.67;4.23;;;30.60;90.90;;;;;;4994330;28;20635;-71
2021/09/27 08:08:11;;;;;;;5.23;4.83;;;31.10;90.40;;;;;;4993693;28;20454;-70
2021/09/27 08:10:39;;;;;;;4.13;3.73;;;31.60;88.00;;;;;;4994080;28;20179;-72
2021/09/27 08:13:06;;;;;;;8.07;7.27;;;32.10;85.20;;;;;;4960826;28;20574;-72
2021/09/27 08:15:36;;;;;;;5.77;5.23;;;32.50;82.70;;;;;;4974342;28;20419;-71
2021/09/27 08:18:05;;;;;;;4.40;4.10;;;32.90;81.70;;;;;;4974321;28;20415;-72
2021/09/27 08:20:36;;;;;;;5.60;5.10;;;33.00;77.80;;;;;;4974487;28;20527;-72
2021/09/27 08:23:03;;;;;;;4.50;4.20;;;33.00;78.80;;;;;;4941869;28;20905;-71
2021/09/27 08:25:29;;;;;;;5.33;4.83;;;33.20;79.00;;;;;;4957322;28;20471;-72
2021/09/27 08:27:56;;;;;;;4.03;3.73;;;33.30;76.80;;;;;;4990986;28;20808;-70
2021/09/27 08:30:30;;;;;;;4.23;3.90;;;33.40;75.40;;;;;;4993926;28;20838;-72
2021/09/27 08:32:56;;;;;;;4.33;3.93;;;33.70;74.80;;;;;;4993971;28;20399;-71
2021/09/27 08:35:21;;;;;;;4.97;4.57;;;34.10;74.00;;;;;;4983853;28;20506;-71
2021/09/27 08:37:48;;;;;;;3.80;3.50;;;34.10;73.00;;;;;;4973936;28;20164;-72
2021/09/27 08:40:50;;;;;;;3.90;3.60;;;34.30;73.40;;;;;;4957023;28;20431;-72
2021/09/27 08:43:37;;;;;;;3.83;3.53;;;34.50;70.80;;;;;;4967194;28;20435;-71
2021/09/27 08:46:29;;;;;;;3.70;3.40;;;34.60;70.90;;;;;;4974399;28;20446;-72
2021/09/27 08:49:04;;;;;;;3.90;3.60;;;34.80;70.40;;;;;;4969555;28;20534;-71
2021/09/27 08:51:34;;;;;;;6.00;5.50;;;35.00;68.60;;;;;;4960861;28;20518;-71
2021/09/27 08:54:01;;;;;;;3.80;3.40;;;35.10;69.30;;;;;;4976355;28;20403;-70
2021/09/27 08:56:38;;;;;;;4.10;3.80;;;35.00;67.00;;;;;;4993768;28;20406;-70
2021/09/27 08:59:41;;;;;;;3.40;3.20;;;35.00;67.30;;;;;;4993542;28;20784;-71
2021/09/27 09:02:26;;;;;;;3.47;3.27;;;35.00;66.80;;;;;;4993718;28;20429;-72
2021/09/27 09:05:03;;;;;;;5.27;4.80;;;35.20;66.30;;;;;;4989866;28;20430;-72
2021/09/27 09:07:29;;;;;;;4.73;3.63;;;35.30;64.30;;;;;;4954564;28;20456;-71
2021/09/27 09:10:04;;;;;;;3.47;3.27;;;35.40;64.60;;;;;;4958461;28;20428;-71
2021/09/27 09:12:52;;;;;;;3.20;3.00;;;35.60;64.00;;;;;;4941634;29;20790;-72
2021/09/27 09:15:19;;;;;;;4.27;3.90;;;35.90;63.80;;;;;;4958544;29;20915;-72
2021/09/27 09:17:52;;;;;;;4.00;3.63;;;36.10;63.60;;;;;;4958242;29;20405;-71
2021/09/27 09:20:47;;;;;;;3.77;3.47;;;36.10;61.80;;;;;;4989595;28;20434;-72
2021/09/27 09:23:36;;;;;;;3.53;3.33;;;36.20;60.10;;;;;;4970835;28;20410;-71
2021/09/27 09:26:06;;;;;;;3.87;3.57;;;36.20;60.00;;;;;;4975120;28;20427;-72
2021/09/27 09:28:33;;;;;;;3.50;3.20;;;36.10;60.70;;;;;;4977026;28;20998;-72
2021/09/27 09:31:12;;;;;;;2.97;2.77;;;36.20;61.20;;;;;;4977477;28;20477;-73
2021/09/27 09:33:54;;;;;;;3.00;2.80;;;36.50;59.60;;;;;;4977521;28;20909;-72
2021/09/27 09:36:35;;;;;;;3.20;3.00;;;36.40;59.50;;;;;;4977513;28;20403;-72
2021/09/27 09:39:17;;;;;;;3.40;2.77;;;35.70;59.20;;;;;;4977555;28;20760;-72
2021/09/27 09:41:49;;;;;;;3.50;3.20;;;35.20;60.30;;;;;;4977481;28;20823;-71
2021/09/27 09:44:35;;;;;;;3.30;2.80;;;35.20;59.70;;;;;;4977366;28;20396;-72
2021/09/27 09:47:09;;;;;;;2.97;2.67;;;35.40;59.90;;;;;;4976914;28;21021;-73
2021/09/27 09:49:57;;;;;;;3.10;2.87;;;35.40;60.00;;;;;;4977416;28;20434;-72
2021/09/27 09:52:45;;;;;;;2.97;2.77;;;34.60;59.30;;;;;;4992947;28;20442;-74
2021/09/27 09:55:20;;;;;;;2.20;2.10;;;33.40;61.60;;;;;;4996265;28;20747;-72
2021/09/27 09:57:59;;;;;;;2.40;2.13;;;32.90;62.60;;;;;;4996336;28;20745;-72
2021/09/27 10:00:50;;;;;;;2.77;2.57;;;32.40;62.30;;;;;;4996368;28;20426;-73
2021/09/27 10:03:28;;;;;;;2.73;2.53;;;31.60;66.40;;;;;;4996541;28;20399;-71
2021/09/27 10:06:03;;;;;;;2.40;2.20;;;31.60;64.70;;;;;;4994838;28;20414;-73
2021/09/27 10:08:29;;;;;;;2.53;2.33;;;31.80;64.90;;;;;;4995916;28;20450;-73
2021/09/27 10:11:04;;;;;;;2.40;2.20;;;31.80;64.70;;;;;;4996295;28;20465;-71
2021/09/27 10:13:39;;;;;;;3.40;2.47;;;31.20;65.70;;;;;;4996253;28;20406;-71
2021/09/27 10:16:38;;;;;;;3.27;2.53;;;30.50;66.90;;;;;;4996825;28;20394;-72
2021/09/27 10:19:38;;;;;;;2.60;2.40;;;30.20;69.20;;;;;;4995787;28;20793;-70
2021/09/27 10:22:15;;;;;;;1.60;1.50;;;30.50;69.90;;;;;;4947061;28;20419;-69
2021/09/27 10:24:47;;;;;;;1.60;1.50;;;30.80;68.20;;;;;;4976715;28;20487;-70
2021/09/27 10:27:24;;;;;;;2.20;2.00;;;31.20;66.60;;;;;;4958754;28;20468;-72
2021/09/27 10:29:51;;;;;;;2.80;2.33;;;31.50;64.40;;;;;;4976625;28;20790;-69
2021/09/27 10:32:34;;;;;;;2.23;2.10;;;31.00;65.40;;;;;;4991586;28;20449;-71
2021/09/27 10:35:08;;;;;;;2.17;2.03;;;30.80;66.40;;;;;;4995806;28;20809;-70
2021/09/27 10:37:33;;;;;;;2.50;2.33;;;30.50;66.50;;;;;;4995403;28;20765;-69
2021/09/27 10:40:00;;;;;;;2.30;2.10;;;30.10;68.10;;;;;;4994974;28;20427;-70
2021/09/27 10:42:42;;;;;;;3.40;2.60;;;29.30;69.60;;;;;;4975956;28;20184;-72
2021/09/27 10:45:10;;;;;;;2.70;2.07;;;28.60;72.70;;;;;;4976069;28;20469;-71
2021/09/27 10:47:41;;;;;;;2.50;1.80;;;28.10;72.70;;;;;;4975925;28;20434;-70
2021/09/27 10:50:19;;;;;;;2.70;2.00;;;27.70;73.40;;;;;;4976182;28;20421;-71
2021/09/27 10:52:50;;;;;;;2.17;1.73;;;27.50;75.10;;;;;;4975351;28;20435;-74
2021/09/27 10:55:33;;;;;;;1.80;1.70;;;27.40;75.20;;;;;;4975672;28;20498;-73
2021/09/27 10:58:11;;;;;;;1.97;1.80;;;27.10;75.30;;;;;;4958103;28;20948;-72
2021/09/27 11:00:47;;;;;;;3.33;2.17;;;27.00;76.20;;;;;;4975757;28;20442;-71
2021/09/27 11:03:26;;;;;;;3.80;2.10;;;27.20;76.70;;;;;;4975939;28;20468;-73
2021/09/27 11:06:00;;;;;;;2.03;1.93;;;27.10;77.00;;;;;;4962836;28;21005;-73
2021/09/27 11:08:41;;;;;;;2.00;1.90;;;27.00;76.90;;;;;;4994080;28;20431;-73
2021/09/27 11:11:22;;;;;;;2.23;1.80;;;26.60;78.00;;;;;;4995171;28;20833;-72
2021/09/27 11:13:47;;;;;;;2.17;1.97;;;26.00;79.40;;;;;;4995354;28;20928;-72
2021/09/27 11:16:23;;;;;;;2.03;1.80;;;25.60;80.10;;;;;;4995331;28;20450;-73
2021/09/27 11:18:56;;;;;;;2.57;2.37;;;25.40;80.80;;;;;;4994503;28;20429;-71
2021/09/27 11:21:33;;;;;;;2.00;1.90;;;25.40;82.10;;;;;;4994700;28;20502;-73
2021/09/27 11:24:44;;;;;;;2.03;1.80;;;25.30;82.30;;;;;;4995229;28;20420;-73
2021/09/27 11:27:18;;;;;;;2.23;2.03;;;25.20;83.00;;;;;;4984194;28;20498;-73
2021/09/27 11:29:54;;;;;;;2.20;1.90;;;25.10;85.80;;;;;;4994891;28;20422;-75
2021/09/27 11:32:22;;;;;;;4.13;2.27;;;25.10;84.70;;;;;;4995661;28;20840;-71
2021/09/27 11:35:16;;;;;;;2.20;2.00;;;25.20;85.90;;;;;;4995976;28;20490;-70
2021/09/27 11:37:41;;;;;;;2.30;2.10;;;25.10;85.40;;;;;;4974451;28;20804;-70
2021/09/27 11:40:07;;;;;;;2.10;1.90;;;25.10;84.00;;;;;;4973573;28;20402;-72
2021/09/27 11:42:57;;;;;;;2.07;1.97;;;25.00;84.40;;;;;;4974868;28;20184;-71
2021/09/27 11:45:37;;;;;;;2.10;1.90;;;24.90;85.80;;;;;;4974937;28;20394;-69
2021/09/27 11:48:06;;;;;;;3.27;2.40;;;24.80;84.90;;;;;;4974380;28;20524;-69
2021/09/27 11:50:35;;;;;;;2.00;1.90;;;24.80;85.60;;;;;;4974680;28;20462;-70
2021/09/27 11:53:11;;;;;;;2.20;1.33;;;24.80;84.60;;;;;;4974901;28;20486;-69
2021/09/27 11:55:40;;;;;;;1.40;1.30;;;24.80;85.00;;;;;;4974644;28;20401;-70
2021/09/27 11:58:38;;;;;;;2.70;2.47;;;24.80;85.80;;;;;;4974211;28;20408;-71
2021/09/27 12:01:13;;;;;;;1.60;1.50;;;24.80;86.30;;;;;;4983050;28;20398;-73
2021/09/27 12:03:56;;;;;;;3.20;2.57;;;24.70;83.90;;;;;;4994365;28;20410;-73
2021/09/27 12:06:43;;;;;;;3.23;2.43;;;24.70;85.20;;;;;;4993353;28;20419;-73
2021/09/27 12:09:18;;;;;;;1.90;1.53;;;24.70;85.90;;;;;;4960552;28;20777;-72
2021/09/27 12:11:53;;;;;;;1.80;1.70;;;24.70;86.10;;;;;;4974765;28;20405;-72
2021/09/27 12:14:41;;;;;;;1.50;1.30;;;24.60;85.80;;;;;;4974984;28;20374;-75
2021/09/27 12:17:12;;;;;;;1.87;1.77;;;24.60;85.80;;;;;;4975790;28;20415;-74
2021/09/27 12:19:50;;;;;;;2.47;2.00;;;24.60;87.60;;;;;;4974915;28;20463;-74
2021/09/27 12:22:28;;;;;;;4.83;2.13;;;24.60;86.60;;;;;;4955304;29;20419;-73
2021/09/27 12:24:54;;;;;;;1.73;1.63;;;24.80;85.50;;;;;;4955052;29;20405;-73
2021/09/27 12:27:28;;;;;;;1.23;1.23;;;24.90;84.60;;;;;;4954814;29;20452;-75
2021/09/27 12:29:58;;;;;;;1.77;1.67;;;25.10;84.30;;;;;;4955139;28;20199;-73
2021/09/27 12:32:26;;;;;;;2.60;1.50;;;25.10;83.70;;;;;;4953515;29;20446;-74
2021/09/27 12:34:52;;;;;;;1.70;1.60;;;25.20;83.60;;;;;;4938880;28;20502;-73
2021/09/27 12:37:21;;;;;;;1.17;1.10;;;25.20;84.30;;;;;;4972280;28;20550;-75
2021/09/27 12:39:48;;;;;;;2.10;2.00;;;25.10;83.60;;;;;;4972512;28;20679;-74
2021/09/27 12:42:27;;;;;;;2.67;2.47;;;25.10;84.30;;;;;;4973962;28;20378;-75
2021/09/27 12:45:17;;;;;;;2.10;2.00;;;25.10;85.40;;;;;;4976513;28;20438;-75
2021/09/27 12:47:45;;;;;;;2.00;1.90;;;25.10;84.40;;;;;;4958353;29;20587;-73
2021/09/27 12:50:16;;;;;;;1.70;1.60;;;25.10;83.40;;;;;;4958691;28;20451;-74
2021/09/27 12:52:50;;;;;;;3.40;2.40;;;25.10;84.00;;;;;;4959180;29;20408;-70
2021/09/27 12:55:22;;;;;;;2.60;2.20;;;25.10;85.00;;;;;;4974466;28;20782;-73
2021/09/27 12:57:52;;;;;;;2.03;1.93;;;25.20;86.40;;;;;;4997203;28;20480;-75
2021/09/27 13:00:30;;;;;;;1.73;1.63;;;25.20;85.60;;;;;;4997745;28;20401;-75
2021/09/27 13:02:57;;;;;;;1.30;1.20;;;25.30;84.50;;;;;;4980268;28;20393;-72
2021/09/27 13:05:28;;;;;;;1.77;1.67;;;25.20;84.50;;;;;;4979934;28;20390;-74
2021/09/27 13:07:56;;;;;;;2.93;2.70;;;25.20;84.50;;;;;;4997298;28;20809;-74
2021/09/27 13:10:30;;;;;;;2.50;2.30;;;25.00;86.40;;;;;;4990087;28;20741;-75
2021/09/27 13:13:30;;;;;;;1.40;1.30;;;24.90;85.40;;;;;;4996794;28;20425;-73
2021/09/27 13:16:03;;;;;;;1.33;1.23;;;24.60;84.40;;;;;;4983622;28;20418;-74
2021/09/27 13:18:35;;;;;;;1.73;1.63;;;24.40;85.20;;;;;;4996865;28;20388;-75
2021/09/27 13:21:19;;;;;;;3.40;2.80;;;24.40;85.50;;;;;;4979803;28;20396;-72
2021/09/27 13:23:54;;;;;;;3.20;1.97;;;24.30;86.20;;;;;;4997337;28;20534;-75
2021/09/27 13:26:20;;;;;;;6.23;5.60;;;24.20;86.50;;;;;;4980775;28;20461;-74
2021/09/27 13:28:56;;;;;;;3.30;2.27;;;24.20;88.50;;;;;;4996679;28;20499;-76
2021/09/27 13:31:27;;;;;;;1.63;1.53;;;24.10;89.20;;;;;;4997195;28;20194;-74
2021/09/27 13:33:56;;;;;;;1.70;1.60;;;24.10;89.00;;;;;;4997183;28;20407;-76
2021/09/27 13:36:31;;;;;;;2.63;2.10;;;24.00;88.90;;;;;;4996869;28;20561;-74